Forest Oaks, North Carolina
Current Conditions -  °F | °C
As of 1:54 AM on Tuesday 21 Oct 2014 (Local Time) from KGSO Reporting Station
Broken Clouds Broken Clouds  
Wind Chill: 57°   Ceiling: 10000
Heat Index: 57°   Visibility: 10mi
Dew Point: 49°   Wind: 5mph
Humidity: 74%   Direction: 230°SW
Pressure: 29.95"   Gusts: NA
Location:  36°N, 79.7628°W
Report Text: KGSO 210554Z 23004KT 10SM BKN100 14/09 A2995 RMK AO2 SLP137 60000 T01390094 10161 20139 58008
Loading
Personal Weather Stations






























Interactive Weather Map
Tropical Storm Tracking
New forecast layout! Learn more

10-Day Weather Forecast

Advertisements
Track Severe Weather on mobile